sensor_id;sensor_type;location;lat;lon;timestamp;P1;durP1;ratioP1;P2;durP2;ratioP2
72388;SDS011;60566;48.062;9.930;2023-07-28T00:01:18;6.93;;;4.10;;
72388;SDS011;60566;48.062;9.930;2023-07-28T00:03:43;6.72;;;4.40;;
72388;SDS011;60566;48.062;9.930;2023-07-28T00:06:09;6.82;;;3.97;;
72388;SDS011;60566;48.062;9.930;2023-07-28T00:08:37;7.35;;;4.18;;
72388;SDS011;60566;48.062;9.930;2023-07-28T00:11:02;8.23;;;4.35;;
72388;SDS011;60566;48.062;9.930;2023-07-28T00:13:27;8.30;;;4.35;;
72388;SDS011;60566;48.062;9.930;2023-07-28T00:15:53;10.73;;;4.35;;
72388;SDS011;60566;48.062;9.930;2023-07-28T00:18:18;6.50;;;3.97;;
72388;SDS011;60566;48.062;9.930;2023-07-28T00:20:44;8.35;;;3.83;;
72388;SDS011;60566;48.062;9.930;2023-07-28T00:23:09;6.93;;;4.10;;
72388;SDS011;60566;48.062;9.930;2023-07-28T00:25:36;7.95;;;4.25;;
72388;SDS011;60566;48.062;9.930;2023-07-28T00:28:01;7.70;;;3.85;;
72388;SDS011;60566;48.062;9.930;2023-07-28T00:30:26;6.55;;;4.28;;
72388;SDS011;60566;48.062;9.930;2023-07-28T00:32:52;7.45;;;4.55;;
72388;SDS011;60566;48.062;9.930;2023-07-28T00:35:17;7.40;;;4.15;;
72388;SDS011;60566;48.062;9.930;2023-07-28T00:37:42;8.00;;;4.20;;
72388;SDS011;60566;48.062;9.930;2023-07-28T00:40:08;7.57;;;4.30;;
72388;SDS011;60566;48.062;9.930;2023-07-28T00:42:35;6.15;;;4.07;;
72388;SDS011;60566;48.062;9.930;2023-07-28T00:45:01;7.25;;;4.03;;
72388;SDS011;60566;48.062;9.930;2023-07-28T00:47:26;6.30;;;3.47;;
72388;SDS011;60566;48.062;9.930;2023-07-28T00:49:51;6.65;;;3.90;;
72388;SDS011;60566;48.062;9.930;2023-07-28T00:52:17;7.50;;;4.30;;
72388;SDS011;60566;48.062;9.930;2023-07-28T00:54:42;7.57;;;4.20;;
72388;SDS011;60566;48.062;9.930;2023-07-28T00:57:08;6.28;;;3.60;;
72388;SDS011;60566;48.062;9.930;2023-07-28T00:59:34;8.73;;;4.57;;
72388;SDS011;60566;48.062;9.930;2023-07-28T01:02:00;7.47;;;4.05;;
72388;SDS011;60566;48.062;9.930;2023-07-28T01:04:25;6.93;;;3.80;;
72388;SDS011;60566;48.062;9.930;2023-07-28T01:06:52;7.45;;;4.20;;
72388;SDS011;60566;48.062;9.930;2023-07-28T01:09:21;6.25;;;3.63;;
72388;SDS011;60566;48.062;9.930;2023-07-28T01:14:19;6.38;;;3.75;;
72388;SDS011;60566;48.062;9.930;2023-07-28T01:16:46;7.40;;;3.40;;
72388;SDS011;60566;48.062;9.930;2023-07-28T01:19:11;6.28;;;3.88;;
72388;SDS011;60566;48.062;9.930;2023-07-28T01:21:37;7.55;;;4.07;;
72388;SDS011;60566;48.062;9.930;2023-07-28T01:24:05;9.85;;;3.80;;
72388;SDS011;60566;48.062;9.930;2023-07-28T01:26:41;7.88;;;3.97;;
72388;SDS011;60566;48.062;9.930;2023-07-28T01:29:06;6.07;;;3.70;;
72388;SDS011;60566;48.062;9.930;2023-07-28T01:31:32;6.20;;;3.90;;
72388;SDS011;60566;48.062;9.930;2023-07-28T01:33:57;6.88;;;3.92;;
72388;SDS011;60566;48.062;9.930;2023-07-28T01:36:23;6.47;;;3.50;;
72388;SDS011;60566;48.062;9.930;2023-07-28T01:38:48;8.80;;;4.25;;
72388;SDS011;60566;48.062;9.930;2023-07-28T01:41:14;7.00;;;3.80;;
72388;SDS011;60566;48.062;9.930;2023-07-28T01:43:41;7.55;;;4.32;;
72388;SDS011;60566;48.062;9.930;2023-07-28T01:46:06;7.97;;;3.75;;
72388;SDS011;60566;48.062;9.930;2023-07-28T01:48:31;6.07;;;3.70;;
72388;SDS011;60566;48.062;9.930;2023-07-28T01:50:57;7.63;;;4.63;;
72388;SDS011;60566;48.062;9.930;2023-07-28T01:53:22;8.13;;;4.18;;
72388;SDS011;60566;48.062;9.930;2023-07-28T01:55:47;6.53;;;3.88;;
72388;SDS011;60566;48.062;9.930;2023-07-28T01:58:13;7.10;;;3.70;;
72388;SDS011;60566;48.062;9.930;2023-07-28T02:00:39;6.78;;;3.90;;
72388;SDS011;60566;48.062;9.930;2023-07-28T02:03:05;6.85;;;4.07;;
72388;SDS011;60566;48.062;9.930;2023-07-28T02:05:30;6.68;;;3.88;;
72388;SDS011;60566;48.062;9.930;2023-07-28T02:07:56;6.13;;;3.67;;
72388;SDS011;60566;48.062;9.930;2023-07-28T02:10:21;7.07;;;3.88;;
72388;SDS011;60566;48.062;9.930;2023-07-28T02:12:47;6.47;;;3.70;;
72388;SDS011;60566;48.062;9.930;2023-07-28T02:15:13;5.82;;;3.78;;
72388;SDS011;60566;48.062;9.930;2023-07-28T02:17:40;6.32;;;3.75;;
72388;SDS011;60566;48.062;9.930;2023-07-28T02:20:06;6.97;;;4.45;;
72388;SDS011;60566;48.062;9.930;2023-07-28T02:22:32;6.10;;;3.63;;
72388;SDS011;60566;48.062;9.930;2023-07-28T02:24:57;6.35;;;3.60;;
72388;SDS011;60566;48.062;9.930;2023-07-28T02:27:22;12.73;;;4.57;;
72388;SDS011;60566;48.062;9.930;2023-07-28T02:29:48;6.55;;;3.80;;
72388;SDS011;60566;48.062;9.930;2023-07-28T02:32:13;6.10;;;3.50;;
72388;SDS011;60566;48.062;9.930;2023-07-28T02:34:40;8.55;;;3.85;;
72388;SDS011;60566;48.062;9.930;2023-07-28T02:37:05;7.72;;;4.35;;
72388;SDS011;60566;48.062;9.930;2023-07-28T02:39:31;6.55;;;3.88;;
72388;SDS011;60566;48.062;9.930;2023-07-28T02:41:57;6.18;;;3.45;;
72388;SDS011;60566;48.062;9.930;2023-07-28T02:44:22;6.10;;;3.47;;
72388;SDS011;60566;48.062;9.930;2023-07-28T02:46:48;7.40;;;3.60;;
72388;SDS011;60566;48.062;9.930;2023-07-28T02:49:13;6.22;;;3.45;;
72388;SDS011;60566;48.062;9.930;2023-07-28T02:51:40;5.78;;;3.65;;
72388;SDS011;60566;48.062;9.930;2023-07-28T02:54:05;7.65;;;3.58;;
72388;SDS011;60566;48.062;9.930;2023-07-28T02:56:30;7.43;;;4.05;;
72388;SDS011;60566;48.062;9.930;2023-07-28T02:58:56;7.50;;;3.72;;
72388;SDS011;60566;48.062;9.930;2023-07-28T03:01:21;5.35;;;3.20;;
72388;SDS011;60566;48.062;9.930;2023-07-28T03:03:52;6.68;;;3.85;;
72388;SDS011;60566;48.062;9.930;2023-07-28T03:06:18;6.13;;;3.47;;
72388;SDS011;60566;48.062;9.930;2023-07-28T03:08:44;5.93;;;3.38;;
72388;SDS011;60566;48.062;9.930;2023-07-28T03:11:10;6.10;;;3.22;;
72388;SDS011;60566;48.062;9.930;2023-07-28T03:13:35;6.63;;;3.63;;
72388;SDS011;60566;48.062;9.930;2023-07-28T03:16:00;9.20;;;3.63;;
72388;SDS011;60566;48.062;9.930;2023-07-28T03:18:26;6.32;;;3.88;;
72388;SDS011;60566;48.062;9.930;2023-07-28T03:20:51;6.15;;;3.53;;
72388;SDS011;60566;48.062;9.930;2023-07-28T03:23:17;6.28;;;3.38;;
72388;SDS011;60566;48.062;9.930;2023-07-28T03:25:43;5.80;;;3.33;;
72388;SDS011;60566;48.062;9.930;2023-07-28T03:28:09;6.82;;;3.80;;
72388;SDS011;60566;48.062;9.930;2023-07-28T03:30:34;8.93;;;3.45;;
72388;SDS011;60566;48.062;9.930;2023-07-28T03:32:59;7.95;;;3.67;;
72388;SDS011;60566;48.062;9.930;2023-07-28T03:35:25;7.75;;;3.78;;
72388;SDS011;60566;48.062;9.930;2023-07-28T03:37:50;7.28;;;4.57;;
72388;SDS011;60566;48.062;9.930;2023-07-28T03:40:16;6.40;;;4.10;;
72388;SDS011;60566;48.062;9.930;2023-07-28T03:42:42;7.25;;;4.25;;
72388;SDS011;60566;48.062;9.930;2023-07-28T03:45:08;7.22;;;4.35;;
72388;SDS011;60566;48.062;9.930;2023-07-28T03:47:34;7.65;;;4.50;;
72388;SDS011;60566;48.062;9.930;2023-07-28T03:49:59;6.68;;;3.53;;
72388;SDS011;60566;48.062;9.930;2023-07-28T03:52:24;6.85;;;4.25;;
72388;SDS011;60566;48.062;9.930;2023-07-28T03:54:50;7.20;;;3.63;;
72388;SDS011;60566;48.062;9.930;2023-07-28T03:57:15;6.45;;;3.88;;
72388;SDS011;60566;48.062;9.930;2023-07-28T03:59:42;7.85;;;4.43;;
72388;SDS011;60566;48.062;9.930;2023-07-28T04:02:08;8.07;;;4.60;;
72388;SDS011;60566;48.062;9.930;2023-07-28T04:04:34;7.22;;;4.15;;
72388;SDS011;60566;48.062;9.930;2023-07-28T04:07:00;7.90;;;4.15;;
72388;SDS011;60566;48.062;9.930;2023-07-28T04:09:25;8.35;;;3.97;;
72388;SDS011;60566;48.062;9.930;2023-07-28T04:11:51;5.78;;;3.63;;
72388;SDS011;60566;48.062;9.930;2023-07-28T04:14:17;7.55;;;4.18;;
72388;SDS011;60566;48.062;9.930;2023-07-28T04:16:43;8.43;;;4.03;;
72388;SDS011;60566;48.062;9.930;2023-07-28T04:19:09;9.05;;;4.05;;
72388;SDS011;60566;48.062;9.930;2023-07-28T04:21:34;6.10;;;3.92;;
72388;SDS011;60566;48.062;9.930;2023-07-28T04:23:59;8.00;;;4.10;;
72388;SDS011;60566;48.062;9.930;2023-07-28T04:26:25;5.50;;;3.50;;
72388;SDS011;60566;48.062;9.930;2023-07-28T04:28:50;7.40;;;4.15;;
72388;SDS011;60566;48.062;9.930;2023-07-28T04:31:16;8.05;;;4.25;;
72388;SDS011;60566;48.062;9.930;2023-07-28T04:33:43;7.10;;;4.47;;
72388;SDS011;60566;48.062;9.930;2023-07-28T04:36:08;9.18;;;4.07;;
72388;SDS011;60566;48.062;9.930;2023-07-28T04:38:34;7.72;;;4.10;;
72388;SDS011;60566;48.062;9.930;2023-07-28T04:40:59;7.20;;;3.80;;
72388;SDS011;60566;48.062;9.930;2023-07-28T04:43:25;6.93;;;4.20;;
72388;SDS011;60566;48.062;9.930;2023-07-28T04:45:50;7.68;;;3.95;;
72388;SDS011;60566;48.062;9.930;2023-07-28T04:48:15;7.70;;;4.38;;
72388;SDS011;60566;48.062;9.930;2023-07-28T04:50:43;6.53;;;3.90;;
72388;SDS011;60566;48.062;9.930;2023-07-28T04:55:34;7.77;;;4.70;;
72388;SDS011;60566;48.062;9.930;2023-07-28T04:57:59;7.55;;;4.30;;
72388;SDS011;60566;48.062;9.930;2023-07-28T05:00:25;7.88;;;4.43;;
72388;SDS011;60566;48.062;9.930;2023-07-28T05:02:50;9.48;;;5.35;;
72388;SDS011;60566;48.062;9.930;2023-07-28T05:05:16;7.70;;;4.63;;
72388;SDS011;60566;48.062;9.930;2023-07-28T05:07:43;6.13;;;4.00;;
72388;SDS011;60566;48.062;9.930;2023-07-28T05:10:08;7.97;;;4.55;;
72388;SDS011;60566;48.062;9.930;2023-07-28T05:12:34;12.07;;;5.85;;
72388;SDS011;60566;48.062;9.930;2023-07-28T05:15:00;11.73;;;5.85;;
72388;SDS011;60566;48.062;9.930;2023-07-28T05:17:25;11.40;;;4.82;;
72388;SDS011;60566;48.062;9.930;2023-07-28T05:19:50;7.32;;;4.28;;
72388;SDS011;60566;48.062;9.930;2023-07-28T05:22:16;5.45;;;3.30;;
72388;SDS011;60566;48.062;9.930;2023-07-28T05:24:43;6.50;;;3.65;;
72388;SDS011;60566;48.062;9.930;2023-07-28T05:27:08;7.40;;;4.15;;
72388;SDS011;60566;48.062;9.930;2023-07-28T05:29:34;9.35;;;3.65;;
72388;SDS011;60566;48.062;9.930;2023-07-28T05:31:59;7.03;;;3.67;;
72388;SDS011;60566;48.062;9.930;2023-07-28T05:34:24;7.25;;;3.92;;
72388;SDS011;60566;48.062;9.930;2023-07-28T05:36:50;6.47;;;3.75;;
72388;SDS011;60566;48.062;9.930;2023-07-28T05:39:15;6.15;;;3.20;;
72388;SDS011;60566;48.062;9.930;2023-07-28T05:41:42;6.50;;;3.80;;
72388;SDS011;60566;48.062;9.930;2023-07-28T05:44:07;7.50;;;3.95;;
72388;SDS011;60566;48.062;9.930;2023-07-28T05:46:33;6.70;;;3.33;;
72388;SDS011;60566;48.062;9.930;2023-07-28T05:48:58;6.40;;;3.70;;
72388;SDS011;60566;48.062;9.930;2023-07-28T05:51:23;6.30;;;3.72;;
72388;SDS011;60566;48.062;9.930;2023-07-28T05:53:49;6.18;;;3.83;;
72388;SDS011;60566;48.062;9.930;2023-07-28T05:56:14;7.75;;;3.92;;
72388;SDS011;60566;48.062;9.930;2023-07-28T05:58:41;7.72;;;3.53;;
72388;SDS011;60566;48.062;9.930;2023-07-28T06:01:06;8.15;;;3.60;;
72388;SDS011;60566;48.062;9.930;2023-07-28T06:03:32;7.53;;;4.50;;
72388;SDS011;60566;48.062;9.930;2023-07-28T06:05:57;7.53;;;4.00;;
72388;SDS011;60566;48.062;9.930;2023-07-28T06:08:23;5.88;;;3.40;;
72388;SDS011;60566;48.062;9.930;2023-07-28T06:10:48;8.13;;;3.58;;
72388;SDS011;60566;48.062;9.930;2023-07-28T06:13:13;6.22;;;3.53;;
72388;SDS011;60566;48.062;9.930;2023-07-28T06:15:41;7.60;;;3.38;;
72388;SDS011;60566;48.062;9.930;2023-07-28T06:18:06;6.00;;;3.75;;
72388;SDS011;60566;48.062;9.930;2023-07-28T06:20:32;8.93;;;3.20;;
72388;SDS011;60566;48.062;9.930;2023-07-28T06:22:57;7.38;;;3.90;;
72388;SDS011;60566;48.062;9.930;2023-07-28T06:25:23;6.82;;;3.70;;
72388;SDS011;60566;48.062;9.930;2023-07-28T06:27:48;6.28;;;3.50;;
72388;SDS011;60566;48.062;9.930;2023-07-28T06:30:13;5.30;;;3.35;;
72388;SDS011;60566;48.062;9.930;2023-07-28T06:32:40;6.05;;;3.35;;
72388;SDS011;60566;48.062;9.930;2023-07-28T06:35:06;7.63;;;4.03;;
72388;SDS011;60566;48.062;9.930;2023-07-28T06:37:32;6.95;;;3.03;;
72388;SDS011;60566;48.062;9.930;2023-07-28T06:39:57;6.32;;;3.42;;
72388;SDS011;60566;48.062;9.930;2023-07-28T06:42:23;5.38;;;3.35;;
72388;SDS011;60566;48.062;9.930;2023-07-28T06:44:48;7.10;;;3.47;;
72388;SDS011;60566;48.062;9.930;2023-07-28T06:47:14;6.72;;;3.05;;
72388;SDS011;60566;48.062;9.930;2023-07-28T06:49:40;7.15;;;3.40;;
72388;SDS011;60566;48.062;9.930;2023-07-28T06:52:06;7.82;;;3.80;;
72388;SDS011;60566;48.062;9.930;2023-07-28T06:54:32;6.25;;;3.55;;
72388;SDS011;60566;48.062;9.930;2023-07-28T06:56:57;6.25;;;3.22;;
72388;SDS011;60566;48.062;9.930;2023-07-28T06:59:22;6.22;;;3.60;;
72388;SDS011;60566;48.062;9.930;2023-07-28T07:01:48;6.63;;;2.92;;
72388;SDS011;60566;48.062;9.930;2023-07-28T07:04:13;6.57;;;3.35;;
72388;SDS011;60566;48.062;9.930;2023-07-28T07:06:40;8.48;;;3.50;;
72388;SDS011;60566;48.062;9.930;2023-07-28T07:09:05;9.20;;;3.20;;
72388;SDS011;60566;48.062;9.930;2023-07-28T07:11:31;5.47;;;3.08;;
72388;SDS011;60566;48.062;9.930;2023-07-28T07:13:56;5.90;;;3.05;;
72388;SDS011;60566;48.062;9.930;2023-07-28T07:16:21;7.82;;;3.30;;
72388;SDS011;60566;48.062;9.930;2023-07-28T07:18:47;6.50;;;3.10;;
72388;SDS011;60566;48.062;9.930;2023-07-28T07:21:12;5.30;;;3.13;;
72388;SDS011;60566;48.062;9.930;2023-07-28T07:23:39;7.43;;;3.45;;
72388;SDS011;60566;48.062;9.930;2023-07-28T07:26:04;5.55;;;3.00;;
72388;SDS011;60566;48.062;9.930;2023-07-28T07:28:29;5.10;;;3.30;;
72388;SDS011;60566;48.062;9.930;2023-07-28T07:30:55;5.38;;;3.15;;
72388;SDS011;60566;48.062;9.930;2023-07-28T07:33:20;5.05;;;3.03;;
72388;SDS011;60566;48.062;9.930;2023-07-28T07:35:46;5.85;;;3.22;;
72388;SDS011;60566;48.062;9.930;2023-07-28T07:38:11;5.60;;;2.85;;
72388;SDS011;60566;48.062;9.930;2023-07-28T07:40:38;6.57;;;3.00;;
72388;SDS011;60566;48.062;9.930;2023-07-28T07:43:03;5.70;;;3.00;;
72388;SDS011;60566;48.062;9.930;2023-07-28T07:45:29;4.75;;;2.83;;
72388;SDS011;60566;48.062;9.930;2023-07-28T07:47:54;4.18;;;2.45;;
72388;SDS011;60566;48.062;9.930;2023-07-28T07:50:20;5.10;;;2.38;;
72388;SDS011;60566;48.062;9.930;2023-07-28T07:52:45;5.65;;;2.50;;
72388;SDS011;60566;48.062;9.930;2023-07-28T07:55:10;7.68;;;2.53;;
72388;SDS011;60566;48.062;9.930;2023-07-28T07:57:37;5.20;;;2.78;;
72388;SDS011;60566;48.062;9.930;2023-07-28T08:00:03;6.18;;;2.78;;
72388;SDS011;60566;48.062;9.930;2023-07-28T08:02:29;6.93;;;2.80;;
72388;SDS011;60566;48.062;9.930;2023-07-28T08:04:54;9.48;;;2.70;;
72388;SDS011;60566;48.062;9.930;2023-07-28T08:07:19;6.80;;;2.80;;
72388;SDS011;60566;48.062;9.930;2023-07-28T08:09:45;5.00;;;2.45;;
72388;SDS011;60566;48.062;9.930;2023-07-28T08:12:11;5.72;;;2.95;;
72388;SDS011;60566;48.062;9.930;2023-07-28T08:14:37;6.63;;;2.63;;
72388;SDS011;60566;48.062;9.930;2023-07-28T08:17:03;4.90;;;2.75;;
72388;SDS011;60566;48.062;9.930;2023-07-28T08:19:29;8.10;;;2.78;;
72388;SDS011;60566;48.062;9.930;2023-07-28T08:21:54;6.65;;;2.97;;
72388;SDS011;60566;48.062;9.930;2023-07-28T08:24:20;7.03;;;2.72;;
72388;SDS011;60566;48.062;9.930;2023-07-28T08:26:45;6.63;;;2.72;;
72388;SDS011;60566;48.062;9.930;2023-07-28T08:29:10;4.88;;;2.30;;
72388;SDS011;60566;48.062;9.930;2023-07-28T08:31:37;6.10;;;2.70;;
72388;SDS011;60566;48.062;9.930;2023-07-28T08:34:02;4.88;;;2.60;;
72388;SDS011;60566;48.062;9.930;2023-07-28T08:36:28;6.15;;;2.75;;
72388;SDS011;60566;48.062;9.930;2023-07-28T08:38:53;5.20;;;2.80;;
72388;SDS011;60566;48.062;9.930;2023-07-28T08:41:19;4.95;;;2.97;;
72388;SDS011;60566;48.062;9.930;2023-07-28T08:43:44;5.03;;;2.47;;
72388;SDS011;60566;48.062;9.930;2023-07-28T08:46:10;6.57;;;2.90;;
72388;SDS011;60566;48.062;9.930;2023-07-28T08:48:37;7.15;;;2.83;;
72388;SDS011;60566;48.062;9.930;2023-07-28T08:51:02;5.53;;;3.03;;
72388;SDS011;60566;48.062;9.930;2023-07-28T08:53:28;6.10;;;2.70;;
72388;SDS011;60566;48.062;9.930;2023-07-28T08:55:53;6.40;;;3.03;;
72388;SDS011;60566;48.062;9.930;2023-07-28T08:58:19;6.10;;;2.92;;
72388;SDS011;60566;48.062;9.930;2023-07-28T09:00:46;5.75;;;2.75;;
72388;SDS011;60566;48.062;9.930;2023-07-28T09:03:11;5.35;;;2.63;;
72388;SDS011;60566;48.062;9.930;2023-07-28T09:05:38;4.55;;;2.60;;
72388;SDS011;60566;48.062;9.930;2023-07-28T09:08:03;5.35;;;3.05;;
72388;SDS011;60566;48.062;9.930;2023-07-28T09:10:33;6.00;;;3.15;;
72388;SDS011;60566;48.062;9.930;2023-07-28T09:13:07;5.63;;;2.85;;
72388;SDS011;60566;48.062;9.930;2023-07-28T09:15:34;5.47;;;3.30;;
72388;SDS011;60566;48.062;9.930;2023-07-28T09:18:00;5.88;;;3.20;;
72388;SDS011;60566;48.062;9.930;2023-07-28T09:20:25;7.45;;;3.45;;
72388;SDS011;60566;48.062;9.930;2023-07-28T09:23:00;6.28;;;3.20;;
72388;SDS011;60566;48.062;9.930;2023-07-28T09:25:25;8.48;;;3.40;;
72388;SDS011;60566;48.062;9.930;2023-07-28T09:27:53;8.23;;;3.53;;
72388;SDS011;60566;48.062;9.930;2023-07-28T09:30:18;6.47;;;2.97;;
72388;SDS011;60566;48.062;9.930;2023-07-28T09:32:46;6.57;;;3.20;;
72388;SDS011;60566;48.062;9.930;2023-07-28T09:35:12;5.90;;;2.92;;
72388;SDS011;60566;48.062;9.930;2023-07-28T09:37:38;6.95;;;3.72;;
72388;SDS011;60566;48.062;9.930;2023-07-28T09:40:07;5.47;;;3.33;;
72388;SDS011;60566;48.062;9.930;2023-07-28T09:42:33;7.18;;;3.15;;
72388;SDS011;60566;48.062;9.930;2023-07-28T09:44:59;5.45;;;3.20;;
72388;SDS011;60566;48.062;9.930;2023-07-28T09:47:25;6.05;;;3.08;;
72388;SDS011;60566;48.062;9.930;2023-07-28T09:49:50;9.27;;;3.63;;
72388;SDS011;60566;48.062;9.930;2023-07-28T09:52:17;5.95;;;3.22;;
72388;SDS011;60566;48.062;9.930;2023-07-28T09:54:43;5.10;;;2.90;;
72388;SDS011;60566;48.062;9.930;2023-07-28T09:57:12;5.78;;;3.10;;
72388;SDS011;60566;48.062;9.930;2023-07-28T09:59:40;6.68;;;3.10;;
72388;SDS011;60566;48.062;9.930;2023-07-28T10:02:06;6.22;;;3.63;;
72388;SDS011;60566;48.062;9.930;2023-07-28T10:04:32;5.90;;;2.95;;
72388;SDS011;60566;48.062;9.930;2023-07-28T10:06:58;5.38;;;2.70;;
72388;SDS011;60566;48.062;9.930;2023-07-28T10:09:23;5.70;;;2.80;;
72388;SDS011;60566;48.062;9.930;2023-07-28T10:11:49;6.47;;;3.05;;
72388;SDS011;60566;48.062;9.930;2023-07-28T10:14:26;6.55;;;3.03;;
72388;SDS011;60566;48.062;9.930;2023-07-28T10:16:51;8.98;;;2.65;;
72388;SDS011;60566;48.062;9.930;2023-07-28T10:19:19;7.57;;;2.75;;
72388;SDS011;60566;48.062;9.930;2023-07-28T10:21:45;4.90;;;2.83;;
72388;SDS011;60566;48.062;9.930;2023-07-28T10:24:11;4.93;;;2.50;;
72388;SDS011;60566;48.062;9.930;2023-07-28T10:26:36;4.93;;;2.55;;
72388;SDS011;60566;48.062;9.930;2023-07-28T10:29:11;6.28;;;2.88;;
72388;SDS011;60566;48.062;9.930;2023-07-28T10:31:38;4.47;;;2.22;;
72388;SDS011;60566;48.062;9.930;2023-07-28T10:34:15;7.30;;;3.13;;
72388;SDS011;60566;48.062;9.930;2023-07-28T10:36:40;5.78;;;3.20;;
72388;SDS011;60566;48.062;9.930;2023-07-28T10:39:12;6.90;;;3.30;;
72388;SDS011;60566;48.062;9.930;2023-07-28T10:41:38;6.25;;;3.17;;
72388;SDS011;60566;48.062;9.930;2023-07-28T10:44:03;5.03;;;2.90;;
72388;SDS011;60566;48.062;9.930;2023-07-28T10:46:29;5.88;;;2.75;;
72388;SDS011;60566;48.062;9.930;2023-07-28T10:48:56;5.78;;;2.83;;
72388;SDS011;60566;48.062;9.930;2023-07-28T10:51:21;4.93;;;2.88;;
72388;SDS011;60566;48.062;9.930;2023-07-28T10:53:49;4.60;;;2.70;;
72388;SDS011;60566;48.062;9.930;2023-07-28T10:56:15;5.10;;;2.60;;
72388;SDS011;60566;48.062;9.930;2023-07-28T10:58:40;7.82;;;3.03;;
72388;SDS011;60566;48.062;9.930;2023-07-28T11:01:06;7.05;;;3.20;;
72388;SDS011;60566;48.062;9.930;2023-07-28T11:03:31;5.45;;;2.30;;
72388;SDS011;60566;48.062;9.930;2023-07-28T11:05:58;6.78;;;2.78;;
72388;SDS011;60566;48.062;9.930;2023-07-28T11:08:23;5.95;;;2.80;;
72388;SDS011;60566;48.062;9.930;2023-07-28T11:10:48;5.40;;;3.10;;
72388;SDS011;60566;48.062;9.930;2023-07-28T11:13:14;5.63;;;2.80;;
72388;SDS011;60566;48.062;9.930;2023-07-28T11:15:40;5.70;;;3.00;;
72388;SDS011;60566;48.062;9.930;2023-07-28T11:18:05;5.28;;;2.58;;
72388;SDS011;60566;48.062;9.930;2023-07-28T11:20:31;6.80;;;3.17;;
72388;SDS011;60566;48.062;9.930;2023-07-28T11:22:59;5.40;;;3.17;;
72388;SDS011;60566;48.062;9.930;2023-07-28T11:25:26;6.10;;;2.95;;
72388;SDS011;60566;48.062;9.930;2023-07-28T11:27:52;6.55;;;3.00;;
72388;SDS011;60566;48.062;9.930;2023-07-28T11:30:18;4.28;;;2.53;;
72388;SDS011;60566;48.062;9.930;2023-07-28T11:32:45;5.20;;;2.80;;
72388;SDS011;60566;48.062;9.930;2023-07-28T11:35:12;5.75;;;3.00;;
72388;SDS011;60566;48.062;9.930;2023-07-28T11:37:39;7.20;;;3.30;;
72388;SDS011;60566;48.062;9.930;2023-07-28T11:40:07;6.28;;;2.90;;
72388;SDS011;60566;48.062;9.930;2023-07-28T11:42:33;6.32;;;3.08;;
72388;SDS011;60566;48.062;9.930;2023-07-28T11:44:59;6.88;;;3.33;;
72388;SDS011;60566;48.062;9.930;2023-07-28T11:47:25;7.95;;;2.83;;
72388;SDS011;60566;48.062;9.930;2023-07-28T11:49:50;6.32;;;2.60;;
72388;SDS011;60566;48.062;9.930;2023-07-28T11:52:15;7.53;;;3.42;;
72388;SDS011;60566;48.062;9.930;2023-07-28T11:54:41;5.18;;;2.75;;
72388;SDS011;60566;48.062;9.930;2023-07-28T11:57:08;5.90;;;3.00;;
72388;SDS011;60566;48.062;9.930;2023-07-28T11:59:33;6.13;;;2.85;;
72388;SDS011;60566;48.062;9.930;2023-07-28T12:02:00;4.72;;;2.70;;
72388;SDS011;60566;48.062;9.930;2023-07-28T12:04:27;5.75;;;2.92;;
72388;SDS011;60566;48.062;9.930;2023-07-28T12:07:03;5.55;;;3.25;;
72388;SDS011;60566;48.062;9.930;2023-07-28T12:09:32;7.22;;;3.00;;
72388;SDS011;60566;48.062;9.930;2023-07-28T12:11:58;5.78;;;3.35;;
72388;SDS011;60566;48.062;9.930;2023-07-28T12:14:31;6.05;;;3.05;;
72388;SDS011;60566;48.062;9.930;2023-07-28T12:16:57;5.55;;;3.20;;
72388;SDS011;60566;48.062;9.930;2023-07-28T12:19:23;5.70;;;2.95;;
72388;SDS011;60566;48.062;9.930;2023-07-28T12:21:49;6.07;;;2.70;;
72388;SDS011;60566;48.062;9.930;2023-07-28T12:24:14;5.88;;;3.10;;
72388;SDS011;60566;48.062;9.930;2023-07-28T12:26:40;5.70;;;3.50;;
72388;SDS011;60566;48.062;9.930;2023-07-28T12:29:05;5.75;;;3.05;;
72388;SDS011;60566;48.062;9.930;2023-07-28T12:31:32;5.15;;;2.70;;
72388;SDS011;60566;48.062;9.930;2023-07-28T12:33:57;5.50;;;2.55;;
72388;SDS011;60566;48.062;9.930;2023-07-28T12:36:23;5.43;;;3.00;;
72388;SDS011;60566;48.062;9.930;2023-07-28T12:38:48;5.78;;;2.90;;
72388;SDS011;60566;48.062;9.930;2023-07-28T12:41:13;5.00;;;2.85;;
72388;SDS011;60566;48.062;9.930;2023-07-28T12:43:39;4.82;;;2.70;;
72388;SDS011;60566;48.062;9.930;2023-07-28T12:46:07;5.18;;;2.78;;
72388;SDS011;60566;48.062;9.930;2023-07-28T12:48:34;6.15;;;2.88;;
72388;SDS011;60566;48.062;9.930;2023-07-28T12:50:59;5.57;;;2.90;;
72388;SDS011;60566;48.062;9.930;2023-07-28T12:53:25;6.05;;;3.08;;
72388;SDS011;60566;48.062;9.930;2023-07-28T12:55:50;8.23;;;3.30;;
72388;SDS011;60566;48.062;9.930;2023-07-28T12:58:16;7.22;;;2.60;;
72388;SDS011;60566;48.062;9.930;2023-07-28T13:00:41;7.22;;;3.15;;
72388;SDS011;60566;48.062;9.930;2023-07-28T13:03:06;6.15;;;3.10;;
72388;SDS011;60566;48.062;9.930;2023-07-28T13:05:33;5.93;;;3.30;;
72388;SDS011;60566;48.062;9.930;2023-07-28T13:07:58;7.78;;;3.05;;
72388;SDS011;60566;48.062;9.930;2023-07-28T13:10:24;6.15;;;3.10;;
72388;SDS011;60566;48.062;9.930;2023-07-28T13:12:49;5.28;;;2.92;;
72388;SDS011;60566;48.062;9.930;2023-07-28T13:15:15;7.90;;;3.20;;
72388;SDS011;60566;48.062;9.930;2023-07-28T13:17:40;5.10;;;2.97;;
72388;SDS011;60566;48.062;9.930;2023-07-28T13:20:06;5.30;;;2.92;;
72388;SDS011;60566;48.062;9.930;2023-07-28T13:22:34;5.57;;;3.10;;
72388;SDS011;60566;48.062;9.930;2023-07-28T13:24:59;5.63;;;3.08;;
72388;SDS011;60566;48.062;9.930;2023-07-28T13:27:24;5.78;;;3.08;;
72388;SDS011;60566;48.062;9.930;2023-07-28T13:29:50;7.68;;;3.40;;
72388;SDS011;60566;48.062;9.930;2023-07-28T13:32:16;5.97;;;3.15;;
72388;SDS011;60566;48.062;9.930;2023-07-28T13:34:42;6.40;;;3.28;;
72388;SDS011;60566;48.062;9.930;2023-07-28T13:37:07;6.78;;;3.30;;
72388;SDS011;60566;48.062;9.930;2023-07-28T13:39:34;5.35;;;3.35;;
72388;SDS011;60566;48.062;9.930;2023-07-28T13:41:59;5.65;;;3.05;;
72388;SDS011;60566;48.062;9.930;2023-07-28T13:44:24;5.75;;;2.95;;
72388;SDS011;60566;48.062;9.930;2023-07-28T13:46:50;6.75;;;3.05;;
72388;SDS011;60566;48.062;9.930;2023-07-28T13:49:15;5.38;;;2.90;;
72388;SDS011;60566;48.062;9.930;2023-07-28T13:51:40;5.50;;;3.20;;
72388;SDS011;60566;48.062;9.930;2023-07-28T13:54:06;5.38;;;3.00;;
72388;SDS011;60566;48.062;9.930;2023-07-28T13:56:32;12.98;;;3.17;;
72388;SDS011;60566;48.062;9.930;2023-07-28T13:58:58;5.65;;;2.80;;
72388;SDS011;60566;48.062;9.930;2023-07-28T14:01:23;6.07;;;3.30;;
72388;SDS011;60566;48.062;9.930;2023-07-28T14:03:49;6.45;;;3.22;;
72388;SDS011;60566;48.062;9.930;2023-07-28T14:06:14;5.50;;;3.08;;
72388;SDS011;60566;48.062;9.930;2023-07-28T14:08:39;6.05;;;2.70;;
72388;SDS011;60566;48.062;9.930;2023-07-28T14:11:05;6.40;;;2.88;;
72388;SDS011;60566;48.062;9.930;2023-07-28T14:13:31;6.43;;;3.15;;
72388;SDS011;60566;48.062;9.930;2023-07-28T14:15:57;10.93;;;3.40;;
72388;SDS011;60566;48.062;9.930;2023-07-28T14:18:22;10.60;;;3.75;;
72388;SDS011;60566;48.062;9.930;2023-07-28T14:20:48;9.98;;;4.60;;
72388;SDS011;60566;48.062;9.930;2023-07-28T14:23:20;7.18;;;3.40;;
72388;SDS011;60566;48.062;9.930;2023-07-28T14:25:46;9.05;;;3.72;;
72388;SDS011;60566;48.062;9.930;2023-07-28T14:28:11;7.97;;;3.40;;
72388;SDS011;60566;48.062;9.930;2023-07-28T14:30:38;12.05;;;3.47;;
72388;SDS011;60566;48.062;9.930;2023-07-28T14:33:03;5.55;;;2.60;;
72388;SDS011;60566;48.062;9.930;2023-07-28T14:35:28;6.28;;;2.95;;
72388;SDS011;60566;48.062;9.930;2023-07-28T14:37:54;5.57;;;2.60;;
72388;SDS011;60566;48.062;9.930;2023-07-28T14:40:19;7.35;;;3.20;;
72388;SDS011;60566;48.062;9.930;2023-07-28T14:42:45;7.95;;;3.17;;
72388;SDS011;60566;48.062;9.930;2023-07-28T14:45:10;7.15;;;3.17;;